ビリニュス の空港の天気 - METARとTAF

ビリニュス国際空港 ( EYVI / VNO ) - リトアニア ビリニュス
飛行場実況気象(Metar)
観測時間12/08 12:20 EET (12/08 10:20 UTC)
風向・風速東北東 3m/s
視程10km以上
天気現象
なし
気温-12℃
湿度85%
気圧1020hPa
METAREYVI 081020Z 06005KT CAVOK M12/M14 Q1020 NOSIG
過去の天気等 Google飛行場航空写真 Wunderground天気予報

過去48時間のMETAR

飛行場予報(TAF)
発表時間: 12/08 09:55 EET (12/08 07:55 UTC)
予報対象時間: 8日9時 EET ~ 9日8時 EET
風向・風速不定 3m/s
視程9000m
全天の4割程度の雲 雲底高度 460m
8日9時 EET ~ 8日14時 EET に一時的に
全天の4割程度の雲 雲底高度 60m
TAF AMD EYVI 080755Z 0807/0906 VRB05KT 9000 SCT015
TEMPO 0807/0812 SCT002